createdAt,value
2018-02-21T00:01:11.132Z,28.83
2018-02-21T00:03:38.803Z,29.37
2018-02-21T00:06:06.503Z,29.90
2018-02-21T00:08:34.938Z,29.43
2018-02-21T00:11:02.684Z,30.37
2018-02-21T00:13:30.356Z,27.50
2018-02-21T00:15:58.811Z,29.43
2018-02-21T00:18:26.515Z,28.97
2018-02-21T00:20:54.215Z,29.90
2018-02-21T00:23:21.918Z,28.90
2018-02-21T00:25:49.575Z,30.20
2018-02-21T00:28:17.278Z,27.93
2018-02-21T00:30:45.712Z,29.37
2018-02-21T00:33:13.414Z,27.80
2018-02-21T00:35:41.849Z,28.27
2018-02-21T00:38:09.559Z,30.17
2018-02-21T00:40:37.216Z,28.50
2018-02-21T00:43:05.681Z,28.10
2018-02-21T00:45:34.107Z,26.70
2018-02-21T00:48:02.294Z,28.63
2018-02-21T00:50:29.975Z,29.00
2018-02-21T00:52:57.679Z,29.77
2018-02-21T00:55:25.344Z,29.60
2018-02-21T00:57:53.003Z,28.33
2018-02-21T01:00:20.706Z,30.17
2018-02-21T01:02:48.370Z,29.83
2018-02-21T01:05:16.080Z,30.27
2018-02-21T01:07:43.737Z,29.23
2018-02-21T01:10:11.447Z,32.67
2018-02-21T01:12:39.110Z,30.17
2018-02-21T01:15:06.825Z,31.37
2018-02-21T01:17:34.487Z,28.47
2018-02-21T01:20:02.972Z,30.77
2018-02-21T01:22:30.636Z,31.67
2018-02-21T01:24:58.339Z,31.90
2018-02-21T01:27:25.995Z,29.60
2018-02-21T01:29:53.703Z,32.57
2018-02-21T01:32:21.359Z,28.47
2018-02-21T01:34:49.056Z,30.60
2018-02-21T01:37:16.727Z,28.80
2018-02-21T01:39:44.426Z,30.70
2018-02-21T01:42:12.099Z,30.73
2018-02-21T01:44:39.803Z,29.90
2018-02-21T01:47:07.488Z,31.43
2018-02-21T01:49:35.950Z,29.57
2018-02-21T01:52:03.611Z,30.17
2018-02-21T01:54:31.315Z,32.20
2018-02-21T01:56:58.979Z,30.37
2018-02-21T01:59:26.686Z,29.80
2018-02-21T02:01:54.346Z,32.77
2018-02-21T02:04:22.010Z,30.23
2018-02-21T02:06:49.723Z,31.70
2018-02-21T02:09:17.423Z,32.27
2018-02-21T02:11:45.143Z,30.57
2018-02-21T02:14:12.811Z,31.50
2018-02-21T02:16:40.541Z,30.10
2018-02-21T02:19:08.234Z,34.27
2018-02-21T02:21:35.942Z,33.13
2018-02-21T02:24:04.403Z,33.10
2018-02-21T02:26:32.111Z,33.53
2018-02-21T02:28:59.791Z,31.83
2018-02-21T02:31:27.509Z,33.73
2018-02-21T02:33:55.955Z,34.83
2018-02-21T02:36:23.676Z,35.17
2018-02-21T02:39:03.200Z,34.70
2018-02-21T02:41:30.915Z,33.17
2018-02-21T02:43:58.595Z,33.70
2018-02-21T02:46:27.070Z,34.70
2018-02-21T02:48:54.735Z,35.80
2018-02-21T02:51:23.222Z,34.97
2018-02-21T02:53:51.654Z,35.23
2018-02-21T02:56:19.369Z,36.57
2018-02-21T02:58:47.043Z,34.67
2018-02-21T03:01:14.760Z,35.20
2018-02-21T03:03:42.428Z,36.40
2018-02-21T03:06:10.911Z,35.40
2018-02-21T03:08:39.378Z,36.97
2018-02-21T03:11:07.088Z,34.83
2018-02-21T03:13:34.755Z,34.37
2018-02-21T03:16:02.468Z,35.20
2018-02-21T03:18:30.905Z,34.53
2018-02-21T03:20:58.615Z,33.50
2018-02-21T03:23:27.048Z,34.83
2018-02-21T03:25:54.762Z,36.70
2018-02-21T03:28:22.435Z,36.10
2018-02-21T03:30:50.176Z,35.47
2018-02-21T03:33:17.844Z,34.20
2018-02-21T03:35:45.564Z,32.93
2018-02-21T03:38:13.235Z,33.53
2018-02-21T03:40:40.951Z,33.10
2018-02-21T03:43:08.627Z,35.63
2018-02-21T03:45:36.339Z,34.03
2018-02-21T03:48:04.007Z,35.73
2018-02-21T03:50:31.738Z,33.00
2018-02-21T03:52:59.402Z,35.33
2018-02-21T03:55:27.875Z,34.00
2018-02-21T03:57:55.539Z,33.47
2018-02-21T04:00:24.025Z,31.57
2018-02-21T04:02:52.457Z,35.57
2018-02-21T04:05:20.167Z,35.30
2018-02-21T04:07:48.606Z,30.50
2018-02-21T04:10:17.116Z,31.47
2018-02-21T04:12:45.546Z,32.27
2018-02-21T04:15:13.251Z,29.70
2018-02-21T04:17:41.688Z,29.73
2018-02-21T04:20:09.678Z,33.37
2018-02-21T04:22:37.356Z,32.17
2018-02-21T04:25:05.807Z,31.33
2018-02-21T04:27:33.523Z,28.97
2018-02-21T04:30:01.189Z,31.20
2018-02-21T04:32:28.895Z,32.73
2018-02-21T04:34:56.568Z,31.30
2018-02-21T04:37:25.061Z,30.77
2018-02-21T04:39:53.543Z,30.90
2018-02-21T04:42:22.018Z,33.13
2018-02-21T04:44:50.455Z,34.50
2018-02-21T04:47:18.162Z,30.37
2018-02-21T04:49:45.832Z,30.27
2018-02-21T04:52:13.560Z,31.13
2018-02-21T04:57:47.896Z,29.90
2018-02-21T05:00:18.262Z,30.77
2018-02-21T05:02:46.012Z,31.37
2018-02-21T05:05:13.688Z,30.33
2018-02-21T05:07:41.395Z,31.47
2018-02-21T05:10:09.062Z,30.67
2018-02-21T05:12:37.547Z,31.83
2018-02-21T05:15:06.015Z,30.27
2018-02-21T05:17:35.796Z,31.20
2018-02-21T05:20:04.416Z,36.50
2018-02-21T05:22:32.911Z,30.57
2018-02-21T05:25:00.583Z,30.60
2018-02-21T05:27:28.315Z,30.73
2018-02-21T05:29:56.744Z,32.30
2018-02-21T05:32:24.455Z,29.90
2018-02-21T05:34:52.892Z,29.53
2018-02-21T05:37:20.605Z,29.87
2018-02-21T05:39:48.275Z,32.10
2018-02-21T05:42:15.982Z,29.47
2018-02-21T05:44:43.658Z,31.53
2018-02-21T05:47:11.380Z,31.73
2018-02-21T05:49:39.048Z,31.93
2018-02-21T05:52:06.761Z,31.37
2018-02-21T05:54:34.427Z,31.50
2018-02-21T05:57:02.136Z,30.37
2018-02-21T05:59:29.807Z,31.77
2018-02-21T06:01:57.519Z,34.03
2018-02-21T06:04:25.187Z,30.27
2018-02-21T06:06:52.908Z,30.30
2018-02-21T06:09:21.339Z,33.50
2018-02-21T06:11:49.815Z,29.97
2018-02-21T06:14:17.507Z,34.00
2018-02-21T06:16:45.227Z,34.13
2018-02-21T06:19:12.886Z,33.47
2018-02-21T06:21:40.606Z,35.40
2018-02-21T06:24:09.046Z,37.93
2018-02-21T06:26:36.763Z,36.80
2018-02-21T06:29:04.430Z,67.37
2018-02-21T06:31:32.968Z,47.10
2018-02-21T06:34:00.648Z,35.90
2018-02-21T06:36:29.084Z,36.03
2018-02-21T06:38:56.811Z,37.87
2018-02-21T06:41:24.488Z,32.77
2018-02-21T06:43:52.257Z,37.37
2018-02-21T06:46:19.916Z,35.83
2018-02-21T06:48:47.673Z,35.20
2018-02-21T06:51:15.386Z,35.90
2018-02-21T06:53:43.864Z,32.57
2018-02-21T06:56:12.307Z,33.40
2018-02-21T06:58:40.024Z,42.63
2018-02-21T07:01:07.699Z,36.40
2018-02-21T07:03:35.416Z,31.70
2018-02-21T07:06:03.914Z,36.10
2018-02-21T07:08:32.399Z,33.20
2018-02-21T07:11:00.079Z,30.73
2018-02-21T07:13:27.795Z,32.93
2018-02-21T07:15:56.239Z,31.97
2018-02-21T07:18:23.975Z,33.57
2018-02-21T07:20:51.654Z,32.30
2018-02-21T07:23:19.372Z,32.30
2018-02-21T07:25:47.117Z,33.80
2018-02-21T07:28:15.591Z,31.17
2018-02-21T07:30:44.371Z,37.63
2018-02-21T07:33:12.074Z,46.10
2018-02-21T07:35:39.743Z,51.60
2018-02-21T07:38:07.482Z,40.10
2018-02-21T07:40:35.167Z,29.83
2018-02-21T07:43:02.883Z,30.30
2018-02-21T07:45:31.323Z,27.50
2018-02-21T07:47:59.036Z,29.83
2018-02-21T07:50:26.703Z,29.27
2018-02-21T07:52:54.437Z,30.00
2018-02-21T07:55:22.863Z,27.43
2018-02-21T07:57:51.382Z,31.53
2018-02-21T08:00:19.055Z,28.83
2018-02-21T08:02:47.531Z,26.97
2018-02-21T08:05:15.956Z,24.47
2018-02-21T08:07:43.667Z,31.17
2018-02-21T08:10:12.098Z,27.77
2018-02-21T08:12:39.806Z,34.43
2018-02-21T08:15:08.232Z,33.43
2018-02-21T08:17:35.944Z,29.33
2018-02-21T08:20:04.437Z,26.07
2018-02-21T08:22:32.911Z,32.37
2018-02-21T08:25:01.335Z,26.87
2018-02-21T08:27:29.050Z,24.40
2018-02-21T08:29:57.485Z,26.70
2018-02-21T08:32:25.192Z,25.90
2018-02-21T08:34:53.667Z,25.80
2018-02-21T08:37:22.135Z,26.10
2018-02-21T08:39:50.615Z,26.80
2018-02-21T08:42:19.086Z,26.07
2018-02-21T08:44:47.507Z,24.70
2018-02-21T08:47:15.218Z,24.90
2018-02-21T08:49:42.880Z,26.80
2018-02-21T08:52:10.596Z,25.30
2018-02-21T08:54:38.268Z,26.27
2018-02-21T08:57:05.970Z,23.83
2018-02-21T08:59:34.436Z,24.50
2018-02-21T09:02:02.104Z,27.63
2018-02-21T09:04:30.620Z,24.03
2018-02-21T09:06:58.296Z,23.40
2018-02-21T09:09:26.007Z,25.00
2018-02-21T09:11:54.432Z,22.83
2018-02-21T09:14:22.139Z,21.50
2018-02-21T09:16:50.567Z,20.10
2018-02-21T09:19:18.318Z,20.77
2018-02-21T09:21:45.980Z,20.37
2018-02-21T09:24:13.687Z,18.70
2018-02-21T09:26:41.350Z,21.00
2018-02-21T09:29:09.058Z,23.80
2018-02-21T09:31:36.763Z,21.07
2018-02-21T09:34:04.482Z,22.53
2018-02-21T09:36:32.140Z,21.57
2018-02-21T09:38:59.845Z,31.03
2018-02-21T09:41:27.504Z,23.47
2018-02-21T09:43:55.203Z,21.87
2018-02-21T09:46:22.868Z,21.90
2018-02-21T09:48:50.568Z,21.40
2018-02-21T09:51:18.235Z,20.80
2018-02-21T09:53:45.939Z,21.03
2018-02-21T09:56:13.594Z,22.20
2018-02-21T09:58:41.302Z,21.17
2018-02-21T10:01:08.972Z,21.17
2018-02-21T10:03:36.675Z,18.50
2018-02-21T10:06:04.383Z,17.00
2018-02-21T10:08:32.099Z,16.97
2018-02-21T10:10:59.810Z,15.90
2018-02-21T10:13:28.318Z,16.10
2018-02-21T10:15:56.748Z,19.73
2018-02-21T10:18:24.453Z,18.40
2018-02-21T10:20:52.114Z,17.10
2018-02-21T10:23:20.596Z,16.23
2018-02-21T10:25:49.022Z,17.43
2018-02-21T10:28:16.723Z,16.07
2018-02-21T10:30:44.460Z,16.00
2018-02-21T10:33:12.167Z,17.07
2018-02-21T10:35:40.606Z,16.60
2018-02-21T10:38:08.312Z,15.40
2018-02-21T10:40:35.973Z,17.80
2018-02-21T10:43:03.707Z,20.83
2018-02-21T10:45:32.146Z,17.73
2018-02-21T10:47:59.855Z,19.00
2018-02-21T10:50:28.284Z,17.40
2018-02-21T10:52:55.991Z,16.37
2018-02-21T10:55:24.431Z,18.47
2018-02-21T10:57:52.128Z,17.57
2018-02-21T11:00:26.267Z,17.77
2018-02-21T11:02:53.985Z,18.83
2018-02-21T11:05:21.659Z,16.97
2018-02-21T11:07:50.135Z,16.40
2018-02-21T11:10:18.569Z,17.57
2018-02-21T11:12:46.280Z,16.93
2018-02-21T11:15:14.754Z,16.60
2018-02-21T11:17:43.224Z,14.57
2018-02-21T11:20:11.664Z,16.33
2018-02-21T11:22:39.399Z,16.10
2018-02-21T11:25:07.070Z,17.40
2018-02-21T11:27:34.734Z,15.63
2018-02-21T11:30:02.435Z,15.67
2018-02-21T11:32:30.096Z,15.83
2018-02-21T11:34:58.579Z,28.00
2018-02-21T11:37:26.241Z,16.63
2018-02-21T11:39:54.703Z,15.33
2018-02-21T11:42:22.375Z,16.90
2018-02-21T11:44:50.847Z,15.67
2018-02-21T11:47:18.506Z,12.83
2018-02-21T11:49:46.215Z,14.50
2018-02-21T11:52:13.871Z,17.47
2018-02-21T11:54:41.575Z,13.90
2018-02-21T11:57:09.237Z,14.87
2018-02-21T11:59:36.939Z,15.40
2018-02-21T12:02:04.623Z,13.83
2018-02-21T12:04:32.330Z,14.00
2018-02-21T12:06:59.982Z,14.40
2018-02-21T12:09:27.690Z,16.00
2018-02-21T12:11:55.362Z,14.30
2018-02-21T12:14:23.068Z,13.43
2018-02-21T12:16:50.727Z,13.90
2018-02-21T12:19:18.436Z,13.53
2018-02-21T12:21:46.103Z,13.53
2018-02-21T12:24:13.981Z,12.50
2018-02-21T12:26:41.673Z,12.30
2018-02-21T12:29:10.156Z,12.87
2018-02-21T12:31:38.636Z,12.47
2018-02-21T12:34:07.147Z,11.73
2018-02-21T12:36:34.809Z,12.83
2018-02-21T12:39:08.115Z,14.27
2018-02-21T12:41:41.305Z,15.70
2018-02-21T12:44:09.011Z,13.53
2018-02-21T12:46:36.755Z,14.27
2018-02-21T12:49:04.493Z,13.87
2018-02-21T12:51:32.158Z,12.47
2018-02-21T12:53:59.864Z,12.60
2018-02-21T12:56:28.301Z,13.27
2018-02-21T12:58:56.022Z,12.70
2018-02-21T13:01:23.684Z,13.57
2018-02-21T13:03:51.399Z,13.70
2018-02-21T13:06:19.062Z,12.23
2018-02-21T13:08:46.778Z,13.17
2018-02-21T13:11:14.444Z,12.83
2018-02-21T13:13:42.157Z,12.63
2018-02-21T13:16:10.602Z,12.20
2018-02-21T13:18:38.318Z,12.30
2018-02-21T13:21:05.983Z,13.47
2018-02-21T13:23:33.699Z,15.73
2018-02-21T13:26:01.373Z,17.47
2018-02-21T13:28:29.844Z,14.87
2018-02-21T13:30:57.507Z,14.73
2018-02-21T13:33:25.984Z,14.77
2018-02-21T13:35:54.456Z,14.30
2018-02-21T13:38:22.943Z,14.60
2018-02-21T13:40:51.410Z,14.33
2018-02-21T13:43:19.131Z,20.37
2018-02-21T13:45:46.791Z,14.23
2018-02-21T13:48:14.514Z,13.53
2018-02-21T13:50:42.952Z,14.40
2018-02-21T13:53:10.612Z,12.17
2018-02-21T13:55:38.319Z,13.00
2018-02-21T13:58:06.200Z,14.70
2018-02-21T14:00:33.912Z,13.83
2018-02-21T14:03:01.580Z,10.67
2018-02-21T14:05:30.054Z,13.87
2018-02-21T14:07:57.718Z,12.80
2018-02-21T14:10:26.196Z,14.40
2018-02-21T14:12:54.625Z,13.10
2018-02-21T14:15:22.342Z,13.83
2018-02-21T14:17:50.781Z,12.90
2018-02-21T14:20:18.488Z,12.67
2018-02-21T14:22:46.918Z,13.53
2018-02-21T14:25:14.623Z,11.80
2018-02-21T14:27:43.047Z,11.87
2018-02-21T14:30:10.764Z,12.07
2018-02-21T14:32:39.216Z,14.60
2018-02-21T14:35:06.931Z,13.13
2018-02-21T14:37:34.595Z,12.33
2018-02-21T14:40:02.320Z,13.97
2018-02-21T14:42:30.759Z,11.13
2018-02-21T14:44:58.488Z,12.33
2018-02-21T14:47:26.169Z,12.27
2018-02-21T14:49:53.895Z,11.10
2018-02-21T14:52:21.562Z,9.20
2018-02-21T14:54:49.270Z,10.53
2018-02-21T14:57:16.944Z,12.10
2018-02-21T14:59:45.423Z,12.43
2018-02-21T15:02:13.861Z,11.37
2018-02-21T15:04:41.572Z,11.93
2018-02-21T15:07:10.008Z,12.90
2018-02-21T15:09:37.727Z,12.40
2018-02-21T15:12:05.396Z,11.37
2018-02-21T15:14:33.110Z,12.10
2018-02-21T15:17:00.778Z,12.73
2018-02-21T15:19:29.257Z,9.83
2018-02-21T15:21:57.687Z,13.00
2018-02-21T15:24:25.407Z,15.20
2018-02-21T15:26:53.840Z,15.77
2018-02-21T15:29:21.542Z,12.87
2018-02-21T15:31:49.992Z,12.97
2018-02-21T15:34:17.714Z,13.37
2018-02-21T15:36:45.370Z,11.60
2018-02-21T15:39:13.074Z,11.97
2018-02-21T15:41:40.736Z,8.80
2018-02-21T15:44:08.459Z,10.50
2018-02-21T15:46:36.168Z,11.37
2018-02-21T15:49:04.647Z,10.30
2018-02-21T15:51:33.075Z,10.97
2018-02-21T15:54:00.770Z,9.33
2018-02-21T15:56:28.433Z,12.63
2018-02-21T15:58:56.126Z,12.17
2018-02-21T16:01:23.796Z,12.10
2018-02-21T16:03:51.460Z,6.03
2018-02-21T16:06:19.168Z,13.17
2018-02-21T16:08:46.867Z,10.83
2018-02-21T16:11:14.575Z,10.53
2018-02-21T16:13:42.282Z,12.90
2018-02-21T16:16:09.983Z,12.43
2018-02-21T16:18:37.639Z,11.43
2018-02-21T16:21:05.354Z,12.67
2018-02-21T16:23:33.780Z,11.50
2018-02-21T16:26:01.482Z,13.40
2018-02-21T16:28:29.930Z,12.20
2018-02-21T16:30:57.643Z,12.10
2018-02-21T16:33:25.300Z,11.77
2018-02-21T16:35:53.015Z,14.10
2018-02-21T16:38:20.690Z,14.20
2018-02-21T16:40:48.398Z,13.50
2018-02-21T16:43:16.067Z,12.50
2018-02-21T16:45:43.775Z,13.37
2018-02-21T16:48:11.447Z,13.47
2018-02-21T16:50:39.928Z,13.47
2018-02-21T16:53:08.363Z,12.73
2018-02-21T16:55:36.103Z,12.90
2018-02-21T16:58:03.773Z,12.33
2018-02-21T17:00:31.499Z,12.47
2018-02-21T17:02:59.162Z,11.70
2018-02-21T17:05:26.880Z,11.53
2018-02-21T17:07:54.551Z,11.87
2018-02-21T17:10:23.040Z,12.93
2018-02-21T17:12:51.483Z,13.00
2018-02-21T17:15:19.196Z,13.20
2018-02-21T17:17:46.868Z,12.43
2018-02-21T17:20:14.585Z,12.77
2018-02-21T17:22:42.256Z,12.40
2018-02-21T17:25:10.741Z,13.00
2018-02-21T17:27:39.183Z,14.70
2018-02-21T17:30:06.922Z,12.93
2018-02-21T17:32:34.606Z,13.57
2018-02-21T17:35:02.326Z,13.83
2018-02-21T17:37:30.011Z,15.00
2018-02-21T17:39:57.720Z,16.10
2018-02-21T17:42:26.155Z,13.63
2018-02-21T17:44:53.875Z,15.27
2018-02-21T17:47:21.537Z,13.90
2018-02-21T17:49:49.247Z,14.93
2018-02-21T17:52:16.915Z,14.47
2018-02-21T17:54:44.634Z,17.35
2018-02-21T17:57:12.297Z,16.30
2018-02-21T17:59:40.009Z,16.50
2018-02-21T18:02:08.445Z,15.50
2018-02-21T18:04:36.931Z,17.20
2018-02-21T18:07:04.610Z,16.00
2018-02-21T18:09:32.280Z,18.97
2018-02-21T18:12:00.754Z,15.10
2018-02-21T18:14:29.203Z,16.80
2018-02-21T18:16:57.264Z,18.43
2018-02-21T18:19:24.942Z,15.30
2018-02-21T18:21:52.737Z,16.97
2018-02-21T18:24:20.418Z,18.47
2018-02-21T18:26:48.143Z,20.50
2018-02-21T18:29:15.806Z,20.70
2018-02-21T18:31:44.280Z,21.40
2018-02-21T18:34:12.710Z,21.00
2018-02-21T18:36:40.411Z,36.33
2018-02-21T18:39:08.079Z,43.87
2018-02-21T18:41:36.559Z,64.33
2018-02-21T18:44:04.996Z,52.57
2018-02-21T18:46:32.709Z,24.60
2018-02-21T18:49:00.383Z,29.60
2018-02-21T18:51:28.092Z,21.23
2018-02-21T18:53:55.755Z,23.60
2018-02-21T18:56:23.480Z,22.27
2018-02-21T18:58:51.155Z,24.57
2018-02-21T19:01:18.858Z,22.97
2018-02-21T19:03:47.303Z,23.73
2018-02-21T19:06:15.013Z,23.13
2018-02-21T19:08:42.678Z,23.00
2018-02-21T19:11:10.383Z,22.60
2018-02-21T19:13:38.059Z,22.70
2018-02-21T19:16:05.766Z,23.40
2018-02-21T19:18:33.428Z,22.93
2018-02-21T19:21:01.131Z,23.07
2018-02-21T19:23:28.799Z,22.70
2018-02-21T19:25:56.518Z,24.87
2018-02-21T19:28:24.184Z,24.73
2018-02-21T19:30:51.899Z,25.00
2018-02-21T19:33:20.356Z,23.70
2018-02-21T19:35:48.071Z,23.43
2018-02-21T19:38:15.734Z,22.23
2018-02-21T19:40:43.445Z,23.43
2018-02-21T19:43:11.874Z,24.90
2018-02-21T19:45:39.591Z,22.50
2018-02-21T19:48:08.042Z,24.57
2018-02-21T19:50:35.760Z,23.93
2018-02-21T19:53:03.538Z,24.53
2018-02-21T19:55:31.262Z,22.27
2018-02-21T19:57:59.699Z,21.40
2018-02-21T20:00:27.368Z,24.47
2018-02-21T20:02:55.088Z,24.10
2018-02-21T20:05:22.756Z,22.43
2018-02-21T20:07:50.475Z,22.10
2018-02-21T20:10:18.914Z,23.07
2018-02-21T20:12:46.631Z,23.77
2018-02-21T20:15:14.314Z,23.47
2018-02-21T20:17:42.022Z,24.43
2018-02-21T20:20:10.460Z,22.87
2018-02-21T20:22:38.175Z,23.17
2018-02-21T20:25:06.618Z,24.57
2018-02-21T20:27:34.342Z,22.40
2018-02-21T20:30:02.028Z,23.40
2018-02-21T20:32:29.740Z,21.07
2018-02-21T20:34:57.410Z,22.27
2018-02-21T20:37:25.147Z,22.90
2018-02-21T20:39:53.596Z,21.30
2018-02-21T20:42:21.318Z,21.33
2018-02-21T20:44:48.994Z,20.90
2018-02-21T20:47:16.731Z,20.33
2018-02-21T20:49:44.399Z,21.40
2018-02-21T20:52:12.070Z,21.73
2018-02-21T20:54:39.791Z,22.53
2018-02-21T20:57:08.230Z,21.87
2018-02-21T20:59:35.938Z,20.53
2018-02-21T21:02:03.627Z,22.50
2018-02-21T21:04:31.346Z,20.87
2018-02-21T21:06:59.783Z,22.10
2018-02-21T21:09:27.498Z,20.53
2018-02-21T21:11:55.974Z,21.80
2018-02-21T21:14:23.691Z,20.07
2018-02-21T21:16:51.363Z,19.77
2018-02-21T21:19:19.079Z,21.13
2018-02-21T21:21:46.747Z,19.60
2018-02-21T21:24:14.471Z,19.50
2018-02-21T21:26:42.147Z,20.10
2018-02-21T21:29:09.859Z,20.57
2018-02-21T21:31:37.535Z,20.77
2018-02-21T21:34:06.015Z,21.67
2018-02-21T21:36:34.492Z,19.93
2018-02-21T21:39:02.966Z,20.37
2018-02-21T21:41:31.450Z,21.67
2018-02-21T21:43:59.887Z,20.17
2018-02-21T21:46:27.599Z,21.33
2018-02-21T21:48:55.274Z,22.00
2018-02-21T21:51:22.978Z,21.30
2018-02-21T21:53:50.655Z,21.23
2018-02-21T21:56:18.366Z,20.90
2018-02-21T21:58:46.053Z,20.50
2018-02-21T22:01:13.776Z,20.53
2018-02-21T22:03:41.447Z,19.40
2018-02-21T22:06:09.166Z,20.77
2018-02-21T22:08:37.604Z,19.27
2018-02-21T22:11:05.314Z,19.47
2018-02-21T22:13:33.743Z,18.90
2018-02-21T22:16:01.457Z,19.60
2018-02-21T22:18:29.124Z,20.30
2018-02-21T22:20:56.803Z,20.60
2018-02-21T22:23:24.523Z,21.27
2018-02-21T22:25:52.997Z,21.00
2018-02-21T22:28:21.482Z,20.60
2018-02-21T22:30:49.915Z,20.20
2018-02-21T22:33:17.628Z,19.97
2018-02-21T22:35:45.291Z,19.90
2018-02-21T22:38:13.006Z,18.50
2018-02-21T22:40:40.676Z,19.50
2018-02-21T22:43:08.393Z,18.73
2018-02-21T22:45:36.059Z,19.40
2018-02-21T22:48:03.765Z,18.63
2018-02-21T22:50:31.429Z,16.73
2018-02-21T22:52:59.906Z,20.10
2018-02-21T22:55:28.352Z,18.33
2018-02-21T22:57:56.057Z,18.13
2018-02-21T23:00:24.537Z,16.37
2018-02-21T23:02:52.250Z,18.60
2018-02-21T23:05:19.911Z,18.60
2018-02-21T23:07:47.627Z,17.67
2018-02-21T23:10:15.339Z,17.50
2018-02-21T23:12:43.007Z,19.70
2018-02-21T23:15:10.732Z,18.30
2018-02-21T23:17:38.403Z,19.73
2018-02-21T23:20:06.106Z,17.60
2018-02-21T23:22:34.541Z,16.93
2018-02-21T23:25:02.259Z,17.50
2018-02-21T23:27:29.922Z,18.50
2018-02-21T23:29:57.634Z,18.77
2018-02-21T23:32:25.302Z,17.77
2018-02-21T23:34:53.010Z,17.00
2018-02-21T23:37:20.678Z,17.50
2018-02-21T23:39:48.391Z,15.70
2018-02-21T23:42:16.062Z,17.17
2018-02-21T23:44:44.543Z,16.57
2018-02-21T23:47:12.980Z,16.40
2018-02-21T23:49:40.706Z,16.83
2018-02-21T23:52:08.374Z,18.13
2018-02-21T23:54:36.084Z,19.23
2018-02-21T23:57:03.759Z,18.50
2018-02-21T23:59:32.251Z,15.40
